sensor_id;sensor_type;location;lat;lon;timestamp;P1;durP1;ratioP1;P2;durP2;ratioP2
50379;SDS011;37474;59.468;18.040;2022-12-07T00:01:19;15.20;;;4.27;;
50379;SDS011;37474;59.468;18.040;2022-12-07T00:03:48;10.93;;;3.40;;
50379;SDS011;37474;59.468;18.040;2022-12-07T00:06:18;9.27;;;3.65;;
50379;SDS011;37474;59.468;18.040;2022-12-07T00:08:47;13.20;;;4.00;;
50379;SDS011;37474;59.468;18.040;2022-12-07T00:11:16;10.20;;;3.60;;
50379;SDS011;37474;59.468;18.040;2022-12-07T00:13:46;8.32;;;3.58;;
50379;SDS011;37474;59.468;18.040;2022-12-07T00:16:15;7.23;;;3.30;;
50379;SDS011;37474;59.468;18.040;2022-12-07T00:21:15;7.33;;;3.17;;
50379;SDS011;37474;59.468;18.040;2022-12-07T00:23:45;7.53;;;3.43;;
50379;SDS011;37474;59.468;18.040;2022-12-07T00:26:14;14.60;;;3.40;;
50379;SDS011;37474;59.468;18.040;2022-12-07T00:28:45;9.80;;;3.83;;
50379;SDS011;37474;59.468;18.040;2022-12-07T00:31:14;8.60;;;3.83;;
50379;SDS011;37474;59.468;18.040;2022-12-07T00:33:44;10.43;;;4.65;;
50379;SDS011;37474;59.468;18.040;2022-12-07T00:36:14;13.97;;;3.50;;
50379;SDS011;37474;59.468;18.040;2022-12-07T00:38:50;12.60;;;3.47;;
50379;SDS011;37474;59.468;18.040;2022-12-07T00:41:18;7.83;;;3.90;;
50379;SDS011;37474;59.468;18.040;2022-12-07T00:43:48;11.77;;;3.47;;
50379;SDS011;37474;59.468;18.040;2022-12-07T00:46:17;8.57;;;3.77;;
50379;SDS011;37474;59.468;18.040;2022-12-07T00:48:50;7.73;;;2.87;;
50379;SDS011;37474;59.468;18.040;2022-12-07T00:53:49;7.13;;;2.83;;
50379;SDS011;37474;59.468;18.040;2022-12-07T00:56:18;7.17;;;3.13;;
50379;SDS011;37474;59.468;18.040;2022-12-07T00:58:52;7.83;;;2.90;;
50379;SDS011;37474;59.468;18.040;2022-12-07T01:01:22;8.10;;;3.23;;
50379;SDS011;37474;59.468;18.040;2022-12-07T01:03:50;6.07;;;3.10;;
50379;SDS011;37474;59.468;18.040;2022-12-07T01:06:21;6.47;;;3.40;;
50379;SDS011;37474;59.468;18.040;2022-12-07T01:08:50;7.33;;;3.10;;
50379;SDS011;37474;59.468;18.040;2022-12-07T01:11:19;4.37;;;2.30;;
50379;SDS011;37474;59.468;18.040;2022-12-07T01:13:49;4.90;;;2.67;;
50379;SDS011;37474;59.468;18.040;2022-12-07T01:16:18;6.28;;;2.80;;
50379;SDS011;37474;59.468;18.040;2022-12-07T01:18:47;6.17;;;2.90;;
50379;SDS011;37474;59.468;18.040;2022-12-07T01:21:17;9.25;;;3.05;;
50379;SDS011;37474;59.468;18.040;2022-12-07T01:26:17;3.33;;;2.13;;
50379;SDS011;37474;59.468;18.040;2022-12-07T01:28:47;8.23;;;3.13;;
50379;SDS011;37474;59.468;18.040;2022-12-07T01:31:16;7.73;;;2.80;;
50379;SDS011;37474;59.468;18.040;2022-12-07T01:33:46;9.60;;;2.77;;
50379;SDS011;37474;59.468;18.040;2022-12-07T01:36:17;8.87;;;3.13;;
50379;SDS011;37474;59.468;18.040;2022-12-07T01:41:20;9.40;;;2.90;;
50379;SDS011;37474;59.468;18.040;2022-12-07T01:44:07;6.97;;;2.63;;
50379;SDS011;37474;59.468;18.040;2022-12-07T01:46:38;7.43;;;2.72;;
50379;SDS011;37474;59.468;18.040;2022-12-07T01:49:08;7.47;;;2.90;;
50379;SDS011;37474;59.468;18.040;2022-12-07T01:51:40;9.73;;;2.83;;
50379;SDS011;37474;59.468;18.040;2022-12-07T01:54:10;6.67;;;3.10;;
50379;SDS011;37474;59.468;18.040;2022-12-07T01:56:44;10.30;;;2.93;;
50379;SDS011;37474;59.468;18.040;2022-12-07T01:59:16;6.47;;;2.60;;
50379;SDS011;37474;59.468;18.040;2022-12-07T02:01:47;5.23;;;2.73;;
50379;SDS011;37474;59.468;18.040;2022-12-07T02:04:15;7.73;;;3.00;;
50379;SDS011;37474;59.468;18.040;2022-12-07T02:06:44;6.67;;;2.40;;
50379;SDS011;37474;59.468;18.040;2022-12-07T02:09:14;10.15;;;3.00;;
50379;SDS011;37474;59.468;18.040;2022-12-07T02:11:44;8.83;;;2.90;;
50379;SDS011;37474;59.468;18.040;2022-12-07T02:14:12;6.90;;;2.60;;
50379;SDS011;37474;59.468;18.040;2022-12-07T02:16:45;7.97;;;2.40;;
50379;SDS011;37474;59.468;18.040;2022-12-07T02:19:27;5.27;;;2.50;;
50379;SDS011;37474;59.468;18.040;2022-12-07T02:22:36;6.67;;;2.50;;
50379;SDS011;37474;59.468;18.040;2022-12-07T02:25:21;7.53;;;2.30;;
50379;SDS011;37474;59.468;18.040;2022-12-07T02:28:00;7.30;;;2.70;;
50379;SDS011;37474;59.468;18.040;2022-12-07T02:30:37;8.37;;;2.73;;
50379;SDS011;37474;59.468;18.040;2022-12-07T02:33:13;8.00;;;2.63;;
50379;SDS011;37474;59.468;18.040;2022-12-07T02:35:46;7.60;;;2.70;;
50379;SDS011;37474;59.468;18.040;2022-12-07T02:38:19;6.03;;;2.87;;
50379;SDS011;37474;59.468;18.040;2022-12-07T02:40:53;6.47;;;2.70;;
50379;SDS011;37474;59.468;18.040;2022-12-07T02:43:23;8.13;;;2.73;;
50379;SDS011;37474;59.468;18.040;2022-12-07T02:45:55;4.80;;;2.63;;
50379;SDS011;37474;59.468;18.040;2022-12-07T02:48:27;8.83;;;2.97;;
50379;SDS011;37474;59.468;18.040;2022-12-07T02:50:56;7.17;;;2.93;;
50379;SDS011;37474;59.468;18.040;2022-12-07T02:53:33;7.43;;;2.63;;
50379;SDS011;37474;59.468;18.040;2022-12-07T02:56:06;7.72;;;2.85;;
50379;SDS011;37474;59.468;18.040;2022-12-07T02:58:43;6.67;;;2.70;;
50379;SDS011;37474;59.468;18.040;2022-12-07T03:01:28;6.60;;;2.50;;
50379;SDS011;37474;59.468;18.040;2022-12-07T03:04:07;7.68;;;2.50;;
50379;SDS011;37474;59.468;18.040;2022-12-07T03:06:49;5.90;;;2.03;;
50379;SDS011;37474;59.468;18.040;2022-12-07T03:09:24;8.57;;;2.65;;
50379;SDS011;37474;59.468;18.040;2022-12-07T03:12:01;5.00;;;2.60;;
50379;SDS011;37474;59.468;18.040;2022-12-07T03:14:38;6.97;;;2.60;;
50379;SDS011;37474;59.468;18.040;2022-12-07T03:17:15;4.87;;;2.40;;
50379;SDS011;37474;59.468;18.040;2022-12-07T03:19:46;7.30;;;2.33;;
50379;SDS011;37474;59.468;18.040;2022-12-07T03:22:20;8.10;;;2.97;;
50379;SDS011;37474;59.468;18.040;2022-12-07T03:24:58;4.90;;;2.30;;
50379;SDS011;37474;59.468;18.040;2022-12-07T03:27:30;9.43;;;2.90;;
50379;SDS011;37474;59.468;18.040;2022-12-07T03:30:02;8.03;;;2.40;;
50379;SDS011;37474;59.468;18.040;2022-12-07T03:32:34;9.43;;;2.85;;
50379;SDS011;37474;59.468;18.040;2022-12-07T03:35:05;5.80;;;2.55;;
50379;SDS011;37474;59.468;18.040;2022-12-07T03:37:39;11.18;;;3.10;;
50379;SDS011;37474;59.468;18.040;2022-12-07T03:40:14;5.27;;;2.20;;
50379;SDS011;37474;59.468;18.040;2022-12-07T03:42:46;8.38;;;2.50;;
50379;SDS011;37474;59.468;18.040;2022-12-07T03:45:15;7.57;;;3.00;;
50379;SDS011;37474;59.468;18.040;2022-12-07T03:47:46;8.05;;;2.83;;
50379;SDS011;37474;59.468;18.040;2022-12-07T03:50:21;6.70;;;2.30;;
50379;SDS011;37474;59.468;18.040;2022-12-07T03:52:55;8.70;;;2.70;;
50379;SDS011;37474;59.468;18.040;2022-12-07T03:55:28;5.90;;;2.80;;
50379;SDS011;37474;59.468;18.040;2022-12-07T03:57:59;8.10;;;3.00;;
50379;SDS011;37474;59.468;18.040;2022-12-07T04:00:30;7.53;;;2.93;;
50379;SDS011;37474;59.468;18.040;2022-12-07T04:03:00;6.27;;;2.67;;
50379;SDS011;37474;59.468;18.040;2022-12-07T04:05:28;11.13;;;2.88;;
50379;SDS011;37474;59.468;18.040;2022-12-07T04:07:56;7.63;;;2.80;;
50379;SDS011;37474;59.468;18.040;2022-12-07T04:10:25;7.63;;;3.90;;
50379;SDS011;37474;59.468;18.040;2022-12-07T04:12:53;8.90;;;4.10;;
50379;SDS011;37474;59.468;18.040;2022-12-07T04:15:21;4.93;;;2.70;;
50379;SDS011;37474;59.468;18.040;2022-12-07T04:17:49;9.02;;;3.35;;
50379;SDS011;37474;59.468;18.040;2022-12-07T04:20:18;7.13;;;2.80;;
50379;SDS011;37474;59.468;18.040;2022-12-07T04:22:51;7.45;;;3.15;;
50379;SDS011;37474;59.468;18.040;2022-12-07T04:25:19;5.90;;;3.20;;
50379;SDS011;37474;59.468;18.040;2022-12-07T04:27:47;7.80;;;2.70;;
50379;SDS011;37474;59.468;18.040;2022-12-07T04:30:16;5.53;;;2.60;;
50379;SDS011;37474;59.468;18.040;2022-12-07T04:32:44;6.00;;;2.70;;
50379;SDS011;37474;59.468;18.040;2022-12-07T04:35:12;6.57;;;2.50;;
50379;SDS011;37474;59.468;18.040;2022-12-07T04:37:41;6.53;;;2.80;;
50379;SDS011;37474;59.468;18.040;2022-12-07T04:40:10;8.45;;;3.15;;
50379;SDS011;37474;59.468;18.040;2022-12-07T04:42:40;6.57;;;2.97;;
50379;SDS011;37474;59.468;18.040;2022-12-07T04:45:09;5.80;;;2.50;;
50379;SDS011;37474;59.468;18.040;2022-12-07T04:47:37;6.93;;;2.07;;
50379;SDS011;37474;59.468;18.040;2022-12-07T04:50:05;10.10;;;2.70;;
50379;SDS011;37474;59.468;18.040;2022-12-07T04:52:34;6.00;;;2.63;;
50379;SDS011;37474;59.468;18.040;2022-12-07T04:55:04;6.40;;;2.63;;
50379;SDS011;37474;59.468;18.040;2022-12-07T04:57:32;5.07;;;2.67;;
50379;SDS011;37474;59.468;18.040;2022-12-07T05:00:00;5.77;;;2.30;;
50379;SDS011;37474;59.468;18.040;2022-12-07T05:02:28;6.00;;;2.37;;
50379;SDS011;37474;59.468;18.040;2022-12-07T05:04:56;5.63;;;2.37;;
50379;SDS011;37474;59.468;18.040;2022-12-07T05:10:20;6.30;;;2.83;;
50379;SDS011;37474;59.468;18.040;2022-12-07T05:12:48;6.55;;;2.92;;
50379;SDS011;37474;59.468;18.040;2022-12-07T05:15:16;6.03;;;2.97;;
50379;SDS011;37474;59.468;18.040;2022-12-07T05:17:44;10.53;;;3.50;;
50379;SDS011;37474;59.468;18.040;2022-12-07T05:20:12;15.50;;;6.77;;
50379;SDS011;37474;59.468;18.040;2022-12-07T05:22:40;11.27;;;4.97;;
50379;SDS011;37474;59.468;18.040;2022-12-07T05:25:08;10.93;;;4.23;;
50379;SDS011;37474;59.468;18.040;2022-12-07T05:27:38;10.93;;;5.23;;
50379;SDS011;37474;59.468;18.040;2022-12-07T05:30:06;14.23;;;6.28;;
50379;SDS011;37474;59.468;18.040;2022-12-07T05:32:35;6.93;;;4.13;;
50379;SDS011;37474;59.468;18.040;2022-12-07T05:35:04;9.23;;;4.27;;
50379;SDS011;37474;59.468;18.040;2022-12-07T05:37:33;11.37;;;5.40;;
50379;SDS011;37474;59.468;18.040;2022-12-07T05:40:01;10.60;;;5.47;;
50379;SDS011;37474;59.468;18.040;2022-12-07T05:42:29;8.53;;;4.77;;
50379;SDS011;37474;59.468;18.040;2022-12-07T05:44:59;9.60;;;4.70;;
50379;SDS011;37474;59.468;18.040;2022-12-07T05:47:27;7.18;;;4.07;;
50379;SDS011;37474;59.468;18.040;2022-12-07T05:49:55;10.40;;;4.47;;
50379;SDS011;37474;59.468;18.040;2022-12-07T05:52:22;12.50;;;3.30;;
50379;SDS011;37474;59.468;18.040;2022-12-07T05:54:51;8.83;;;3.27;;
50379;SDS011;37474;59.468;18.040;2022-12-07T05:57:19;10.17;;;4.03;;
50379;SDS011;37474;59.468;18.040;2022-12-07T05:59:47;12.07;;;3.80;;
50379;SDS011;37474;59.468;18.040;2022-12-07T06:02:15;7.60;;;3.80;;
50379;SDS011;37474;59.468;18.040;2022-12-07T06:04:44;13.38;;;3.17;;
50379;SDS011;37474;59.468;18.040;2022-12-07T06:07:14;6.50;;;3.37;;
50379;SDS011;37474;59.468;18.040;2022-12-07T06:09:43;8.40;;;3.13;;
50379;SDS011;37474;59.468;18.040;2022-12-07T06:12:11;9.13;;;3.40;;
50379;SDS011;37474;59.468;18.040;2022-12-07T06:14:58;4.70;;;2.80;;
50379;SDS011;37474;59.468;18.040;2022-12-07T06:17:28;6.57;;;3.60;;
50379;SDS011;37474;59.468;18.040;2022-12-07T06:19:57;5.88;;;2.53;;
50379;SDS011;37474;59.468;18.040;2022-12-07T06:22:25;7.77;;;2.80;;
50379;SDS011;37474;59.468;18.040;2022-12-07T06:24:53;8.10;;;3.13;;
50379;SDS011;37474;59.468;18.040;2022-12-07T06:27:22;7.75;;;2.90;;
50379;SDS011;37474;59.468;18.040;2022-12-07T06:29:50;12.83;;;3.87;;
50379;SDS011;37474;59.468;18.040;2022-12-07T06:32:18;9.03;;;3.47;;
50379;SDS011;37474;59.468;18.040;2022-12-07T06:34:47;8.10;;;3.53;;
50379;SDS011;37474;59.468;18.040;2022-12-07T06:37:16;12.35;;;3.55;;
50379;SDS011;37474;59.468;18.040;2022-12-07T06:39:44;7.50;;;3.00;;
50379;SDS011;37474;59.468;18.040;2022-12-07T06:42:12;8.52;;;3.40;;
50379;SDS011;37474;59.468;18.040;2022-12-07T06:44:40;9.60;;;3.47;;
50379;SDS011;37474;59.468;18.040;2022-12-07T06:47:08;6.07;;;3.37;;
50379;SDS011;37474;59.468;18.040;2022-12-07T06:49:59;9.50;;;3.27;;
50379;SDS011;37474;59.468;18.040;2022-12-07T06:52:27;11.65;;;4.03;;
50379;SDS011;37474;59.468;18.040;2022-12-07T06:54:55;9.90;;;3.20;;
50379;SDS011;37474;59.468;18.040;2022-12-07T06:57:23;7.53;;;3.03;;
50379;SDS011;37474;59.468;18.040;2022-12-07T06:59:51;6.73;;;2.93;;
50379;SDS011;37474;59.468;18.040;2022-12-07T07:02:19;12.70;;;3.27;;
50379;SDS011;37474;59.468;18.040;2022-12-07T07:04:47;8.43;;;3.17;;
50379;SDS011;37474;59.468;18.040;2022-12-07T07:07:16;8.17;;;2.97;;
50379;SDS011;37474;59.468;18.040;2022-12-07T07:09:44;4.83;;;2.60;;
50379;SDS011;37474;59.468;18.040;2022-12-07T07:12:12;6.70;;;2.80;;
50379;SDS011;37474;59.468;18.040;2022-12-07T07:14:40;6.63;;;2.40;;
50379;SDS011;37474;59.468;18.040;2022-12-07T07:17:09;10.50;;;2.93;;
50379;SDS011;37474;59.468;18.040;2022-12-07T07:19:37;9.90;;;3.00;;
50379;SDS011;37474;59.468;18.040;2022-12-07T07:22:05;7.73;;;2.73;;
50379;SDS011;37474;59.468;18.040;2022-12-07T07:24:34;9.10;;;2.57;;
50379;SDS011;37474;59.468;18.040;2022-12-07T07:27:02;8.23;;;3.22;;
50379;SDS011;37474;59.468;18.040;2022-12-07T07:29:30;5.00;;;2.20;;
50379;SDS011;37474;59.468;18.040;2022-12-07T07:31:59;6.03;;;2.73;;
50379;SDS011;37474;59.468;18.040;2022-12-07T07:34:32;9.40;;;3.50;;
50379;SDS011;37474;59.468;18.040;2022-12-07T07:37:00;8.33;;;2.70;;
50379;SDS011;37474;59.468;18.040;2022-12-07T07:39:28;8.40;;;2.70;;
50379;SDS011;37474;59.468;18.040;2022-12-07T07:41:57;7.97;;;2.83;;
50379;SDS011;37474;59.468;18.040;2022-12-07T07:44:25;6.95;;;2.90;;
50379;SDS011;37474;59.468;18.040;2022-12-07T07:47:00;7.43;;;2.73;;
50379;SDS011;37474;59.468;18.040;2022-12-07T07:49:28;5.60;;;2.70;;
50379;SDS011;37474;59.468;18.040;2022-12-07T07:51:56;5.67;;;2.53;;
50379;SDS011;37474;59.468;18.040;2022-12-07T07:54:24;9.70;;;2.90;;
50379;SDS011;37474;59.468;18.040;2022-12-07T07:56:52;7.10;;;2.77;;
50379;SDS011;37474;59.468;18.040;2022-12-07T07:59:21;9.90;;;2.90;;
50379;SDS011;37474;59.468;18.040;2022-12-07T08:01:51;6.77;;;2.50;;
50379;SDS011;37474;59.468;18.040;2022-12-07T08:04:19;6.53;;;3.07;;
50379;SDS011;37474;59.468;18.040;2022-12-07T08:06:47;5.53;;;2.00;;
50379;SDS011;37474;59.468;18.040;2022-12-07T08:09:14;9.47;;;2.47;;
50379;SDS011;37474;59.468;18.040;2022-12-07T08:11:43;4.40;;;2.50;;
50379;SDS011;37474;59.468;18.040;2022-12-07T08:14:11;7.27;;;2.87;;
50379;SDS011;37474;59.468;18.040;2022-12-07T08:16:41;7.73;;;2.43;;
50379;SDS011;37474;59.468;18.040;2022-12-07T08:19:08;9.80;;;2.90;;
50379;SDS011;37474;59.468;18.040;2022-12-07T08:21:37;7.40;;;3.00;;
50379;SDS011;37474;59.468;18.040;2022-12-07T08:24:05;7.57;;;2.43;;
50379;SDS011;37474;59.468;18.040;2022-12-07T08:26:33;9.20;;;2.63;;
50379;SDS011;37474;59.468;18.040;2022-12-07T08:29:01;6.10;;;2.27;;
50379;SDS011;37474;59.468;18.040;2022-12-07T08:31:30;8.55;;;2.50;;
50379;SDS011;37474;59.468;18.040;2022-12-07T08:33:59;5.93;;;2.23;;
50379;SDS011;37474;59.468;18.040;2022-12-07T08:36:27;9.37;;;2.63;;
50379;SDS011;37474;59.468;18.040;2022-12-07T08:38:55;7.10;;;2.38;;
50379;SDS011;37474;59.468;18.040;2022-12-07T08:41:43;4.70;;;2.27;;
50379;SDS011;37474;59.468;18.040;2022-12-07T08:44:11;6.87;;;2.50;;
50379;SDS011;37474;59.468;18.040;2022-12-07T08:46:39;7.25;;;3.10;;
50379;SDS011;37474;59.468;18.040;2022-12-07T08:49:15;8.10;;;2.80;;
50379;SDS011;37474;59.468;18.040;2022-12-07T08:51:47;6.23;;;2.43;;
50379;SDS011;37474;59.468;18.040;2022-12-07T08:54:16;6.83;;;2.40;;
50379;SDS011;37474;59.468;18.040;2022-12-07T08:56:45;8.57;;;2.60;;
50379;SDS011;37474;59.468;18.040;2022-12-07T08:59:22;5.27;;;2.57;;
50379;SDS011;37474;59.468;18.040;2022-12-07T09:01:50;4.63;;;2.67;;
50379;SDS011;37474;59.468;18.040;2022-12-07T09:04:20;6.17;;;2.73;;
50379;SDS011;37474;59.468;18.040;2022-12-07T09:06:48;11.53;;;2.60;;
50379;SDS011;37474;59.468;18.040;2022-12-07T09:09:16;10.90;;;2.83;;
50379;SDS011;37474;59.468;18.040;2022-12-07T09:11:44;5.20;;;2.53;;
50379;SDS011;37474;59.468;18.040;2022-12-07T09:14:12;5.57;;;2.57;;
50379;SDS011;37474;59.468;18.040;2022-12-07T09:16:41;7.77;;;2.87;;
50379;SDS011;37474;59.468;18.040;2022-12-07T09:19:09;8.13;;;2.60;;
50379;SDS011;37474;59.468;18.040;2022-12-07T09:21:38;7.27;;;3.33;;
50379;SDS011;37474;59.468;18.040;2022-12-07T09:24:06;13.87;;;4.30;;
50379;SDS011;37474;59.468;18.040;2022-12-07T09:26:35;5.75;;;3.22;;
50379;SDS011;37474;59.468;18.040;2022-12-07T09:29:05;11.25;;;3.95;;
50379;SDS011;37474;59.468;18.040;2022-12-07T09:31:35;10.20;;;3.43;;
50379;SDS011;37474;59.468;18.040;2022-12-07T09:34:04;10.30;;;3.00;;
50379;SDS011;37474;59.468;18.040;2022-12-07T09:36:32;5.33;;;2.60;;
50379;SDS011;37474;59.468;18.040;2022-12-07T09:39:02;6.83;;;3.00;;
50379;SDS011;37474;59.468;18.040;2022-12-07T09:41:31;5.30;;;1.87;;
50379;SDS011;37474;59.468;18.040;2022-12-07T09:44:02;4.73;;;2.03;;
50379;SDS011;37474;59.468;18.040;2022-12-07T09:46:33;5.40;;;2.53;;
50379;SDS011;37474;59.468;18.040;2022-12-07T09:49:04;9.13;;;1.83;;
50379;SDS011;37474;59.468;18.040;2022-12-07T09:51:32;7.90;;;2.00;;
50379;SDS011;37474;59.468;18.040;2022-12-07T09:54:02;3.53;;;1.20;;
50379;SDS011;37474;59.468;18.040;2022-12-07T09:56:31;8.63;;;2.30;;
50379;SDS011;37474;59.468;18.040;2022-12-07T09:58:59;10.07;;;1.90;;
50379;SDS011;37474;59.468;18.040;2022-12-07T10:01:29;5.40;;;2.20;;
50379;SDS011;37474;59.468;18.040;2022-12-07T10:04:00;9.90;;;2.10;;
50379;SDS011;37474;59.468;18.040;2022-12-07T10:06:36;7.57;;;2.47;;
50379;SDS011;37474;59.468;18.040;2022-12-07T10:09:11;7.30;;;2.65;;
50379;SDS011;37474;59.468;18.040;2022-12-07T10:14:28;12.10;;;3.50;;
50379;SDS011;37474;59.468;18.040;2022-12-07T10:17:29;5.60;;;2.72;;
50379;SDS011;37474;59.468;18.040;2022-12-07T10:23:00;9.00;;;4.33;;
50379;SDS011;37474;59.468;18.040;2022-12-07T10:25:32;12.33;;;5.37;;
50379;SDS011;37474;59.468;18.040;2022-12-07T10:28:10;16.13;;;6.33;;
50379;SDS011;37474;59.468;18.040;2022-12-07T10:30:47;15.53;;;5.50;;
50379;SDS011;37474;59.468;18.040;2022-12-07T10:33:30;9.27;;;4.77;;
50379;SDS011;37474;59.468;18.040;2022-12-07T10:36:00;20.38;;;9.30;;
50379;SDS011;37474;59.468;18.040;2022-12-07T10:38:44;12.40;;;5.60;;
50379;SDS011;37474;59.468;18.040;2022-12-07T10:41:15;9.75;;;4.70;;
50379;SDS011;37474;59.468;18.040;2022-12-07T10:43:46;14.32;;;6.07;;
50379;SDS011;37474;59.468;18.040;2022-12-07T10:49:41;23.40;;;10.20;;
50379;SDS011;37474;59.468;18.040;2022-12-07T10:52:24;13.07;;;5.57;;
50379;SDS011;37474;59.468;18.040;2022-12-07T10:55:07;12.07;;;5.27;;
50379;SDS011;37474;59.468;18.040;2022-12-07T10:57:49;8.60;;;3.50;;
50379;SDS011;37474;59.468;18.040;2022-12-07T11:00:28;43.43;;;17.47;;
50379;SDS011;37474;59.468;18.040;2022-12-07T11:06:10;23.97;;;12.43;;
50379;SDS011;37474;59.468;18.040;2022-12-07T11:08:54;35.47;;;16.47;;
50379;SDS011;37474;59.468;18.040;2022-12-07T11:11:30;11.73;;;4.57;;
50379;SDS011;37474;59.468;18.040;2022-12-07T11:14:05;12.73;;;6.50;;
50379;SDS011;37474;59.468;18.040;2022-12-07T11:16:50;13.77;;;6.30;;
50379;SDS011;37474;59.468;18.040;2022-12-07T11:19:32;13.17;;;7.27;;
50379;SDS011;37474;59.468;18.040;2022-12-07T11:22:18;12.50;;;5.80;;
50379;SDS011;37474;59.468;18.040;2022-12-07T11:24:55;11.73;;;7.23;;
50379;SDS011;37474;59.468;18.040;2022-12-07T11:27:30;9.70;;;5.20;;
50379;SDS011;37474;59.468;18.040;2022-12-07T11:30:14;14.87;;;6.97;;
50379;SDS011;37474;59.468;18.040;2022-12-07T11:32:58;14.50;;;4.40;;
50379;SDS011;37474;59.468;18.040;2022-12-07T11:35:37;10.30;;;3.30;;
50379;SDS011;37474;59.468;18.040;2022-12-07T11:38:14;6.93;;;3.33;;
50379;SDS011;37474;59.468;18.040;2022-12-07T11:40:50;7.50;;;4.10;;
50379;SDS011;37474;59.468;18.040;2022-12-07T11:43:21;26.87;;;15.43;;
50379;SDS011;37474;59.468;18.040;2022-12-07T11:45:57;21.20;;;13.13;;
50379;SDS011;37474;59.468;18.040;2022-12-07T11:48:31;16.63;;;9.60;;
50379;SDS011;37474;59.468;18.040;2022-12-07T11:51:04;16.13;;;9.03;;
50379;SDS011;37474;59.468;18.040;2022-12-07T11:53:38;20.97;;;9.97;;
50379;SDS011;37474;59.468;18.040;2022-12-07T11:56:12;11.43;;;6.30;;
50379;SDS011;37474;59.468;18.040;2022-12-07T11:58:47;18.17;;;6.37;;
50379;SDS011;37474;59.468;18.040;2022-12-07T12:01:25;9.27;;;4.80;;
50379;SDS011;37474;59.468;18.040;2022-12-07T12:04:05;9.80;;;4.83;;
50379;SDS011;37474;59.468;18.040;2022-12-07T12:06:43;12.25;;;6.90;;
50379;SDS011;37474;59.468;18.040;2022-12-07T12:09:13;14.38;;;5.50;;
50379;SDS011;37474;59.468;18.040;2022-12-07T12:12:10;22.52;;;10.30;;
50379;SDS011;37474;59.468;18.040;2022-12-07T12:15:20;9.10;;;5.43;;
50379;SDS011;37474;59.468;18.040;2022-12-07T12:18:12;11.27;;;6.30;;
50379;SDS011;37474;59.468;18.040;2022-12-07T12:20:54;11.27;;;5.47;;
50379;SDS011;37474;59.468;18.040;2022-12-07T12:23:27;23.40;;;12.20;;
50379;SDS011;37474;59.468;18.040;2022-12-07T12:26:05;14.70;;;5.23;;
50379;SDS011;37474;59.468;18.040;2022-12-07T12:28:36;16.57;;;8.10;;
50379;SDS011;37474;59.468;18.040;2022-12-07T12:31:15;9.77;;;3.60;;
50379;SDS011;37474;59.468;18.040;2022-12-07T12:34:01;8.43;;;3.37;;
50379;SDS011;37474;59.468;18.040;2022-12-07T12:36:43;5.83;;;2.80;;
50379;SDS011;37474;59.468;18.040;2022-12-07T12:42:05;9.17;;;2.90;;
50379;SDS011;37474;59.468;18.040;2022-12-07T12:47:53;15.67;;;7.00;;
50379;SDS011;37474;59.468;18.040;2022-12-07T12:50:28;19.33;;;9.87;;
50379;SDS011;37474;59.468;18.040;2022-12-07T12:52:58;12.70;;;6.10;;
50379;SDS011;37474;59.468;18.040;2022-12-07T12:58:43;6.90;;;3.20;;
50379;SDS011;37474;59.468;18.040;2022-12-07T13:04:21;17.53;;;7.77;;
50379;SDS011;37474;59.468;18.040;2022-12-07T13:06:54;9.97;;;5.97;;
50379;SDS011;37474;59.468;18.040;2022-12-07T13:09:23;7.73;;;3.17;;
50379;SDS011;37474;59.468;18.040;2022-12-07T13:11:57;7.03;;;2.80;;
50379;SDS011;37474;59.468;18.040;2022-12-07T13:14:38;7.43;;;2.50;;
50379;SDS011;37474;59.468;18.040;2022-12-07T13:17:08;6.03;;;2.83;;
50379;SDS011;37474;59.468;18.040;2022-12-07T13:22:40;6.40;;;2.85;;
50379;SDS011;37474;59.468;18.040;2022-12-07T13:25:11;5.03;;;2.70;;
50379;SDS011;37474;59.468;18.040;2022-12-07T13:27:47;5.43;;;2.20;;
50379;SDS011;37474;59.468;18.040;2022-12-07T13:30:20;8.60;;;2.50;;
50379;SDS011;37474;59.468;18.040;2022-12-07T13:32:52;11.38;;;5.05;;
50379;SDS011;37474;59.468;18.040;2022-12-07T13:35:28;10.63;;;4.90;;
50379;SDS011;37474;59.468;18.040;2022-12-07T13:37:58;8.60;;;3.83;;
50379;SDS011;37474;59.468;18.040;2022-12-07T13:40:27;4.97;;;2.50;;
50379;SDS011;37474;59.468;18.040;2022-12-07T13:42:59;6.27;;;3.03;;
50379;SDS011;37474;59.468;18.040;2022-12-07T13:45:29;6.13;;;2.87;;
50379;SDS011;37474;59.468;18.040;2022-12-07T13:48:20;5.27;;;2.33;;
50379;SDS011;37474;59.468;18.040;2022-12-07T13:50:52;6.70;;;2.73;;
50379;SDS011;37474;59.468;18.040;2022-12-07T13:53:23;3.90;;;2.20;;
50379;SDS011;37474;59.468;18.040;2022-12-07T13:55:54;4.23;;;2.17;;
50379;SDS011;37474;59.468;18.040;2022-12-07T13:58:22;5.97;;;2.47;;
50379;SDS011;37474;59.468;18.040;2022-12-07T14:00:51;4.40;;;2.30;;
50379;SDS011;37474;59.468;18.040;2022-12-07T14:03:23;12.47;;;5.30;;
50379;SDS011;37474;59.468;18.040;2022-12-07T14:06:05;8.03;;;3.03;;
50379;SDS011;37474;59.468;18.040;2022-12-07T14:08:36;4.80;;;2.30;;
50379;SDS011;37474;59.468;18.040;2022-12-07T14:11:04;4.00;;;2.40;;
50379;SDS011;37474;59.468;18.040;2022-12-07T14:13:35;7.32;;;3.03;;
50379;SDS011;37474;59.468;18.040;2022-12-07T14:16:15;5.53;;;2.90;;
50379;SDS011;37474;59.468;18.040;2022-12-07T14:18:49;7.37;;;3.60;;
50379;SDS011;37474;59.468;18.040;2022-12-07T14:21:19;6.17;;;3.30;;
50379;SDS011;37474;59.468;18.040;2022-12-07T14:24:08;7.97;;;3.93;;
50379;SDS011;37474;59.468;18.040;2022-12-07T14:26:37;6.17;;;3.70;;
50379;SDS011;37474;59.468;18.040;2022-12-07T14:29:19;5.03;;;2.83;;
50379;SDS011;37474;59.468;18.040;2022-12-07T14:32:04;7.03;;;2.90;;
50379;SDS011;37474;59.468;18.040;2022-12-07T14:34:55;6.90;;;2.90;;
50379;SDS011;37474;59.468;18.040;2022-12-07T14:37:29;8.47;;;2.63;;
50379;SDS011;37474;59.468;18.040;2022-12-07T14:39:59;11.17;;;3.33;;
50379;SDS011;37474;59.468;18.040;2022-12-07T14:42:27;5.93;;;2.95;;
50379;SDS011;37474;59.468;18.040;2022-12-07T14:44:58;9.33;;;3.67;;
50379;SDS011;37474;59.468;18.040;2022-12-07T14:47:27;16.80;;;5.23;;
50379;SDS011;37474;59.468;18.040;2022-12-07T14:50:15;13.67;;;5.63;;
50379;SDS011;37474;59.468;18.040;2022-12-07T14:52:45;12.98;;;5.15;;
50379;SDS011;37474;59.468;18.040;2022-12-07T14:55:37;10.47;;;3.97;;
50379;SDS011;37474;59.468;18.040;2022-12-07T14:58:05;7.55;;;3.33;;
50379;SDS011;37474;59.468;18.040;2022-12-07T15:00:33;9.10;;;3.60;;
50379;SDS011;37474;59.468;18.040;2022-12-07T15:03:01;8.33;;;2.70;;
50379;SDS011;37474;59.468;18.040;2022-12-07T15:05:30;7.53;;;2.83;;
50379;SDS011;37474;59.468;18.040;2022-12-07T15:07:57;9.97;;;2.50;;
50379;SDS011;37474;59.468;18.040;2022-12-07T15:10:26;9.60;;;4.20;;
50379;SDS011;37474;59.468;18.040;2022-12-07T15:13:00;7.83;;;3.60;;
50379;SDS011;37474;59.468;18.040;2022-12-07T15:15:42;20.47;;;9.87;;
50379;SDS011;37474;59.468;18.040;2022-12-07T15:18:11;8.87;;;3.63;;
50379;SDS011;37474;59.468;18.040;2022-12-07T15:20:39;14.83;;;4.50;;
50379;SDS011;37474;59.468;18.040;2022-12-07T15:23:07;9.37;;;2.93;;
50379;SDS011;37474;59.468;18.040;2022-12-07T15:25:35;14.07;;;6.20;;
50379;SDS011;37474;59.468;18.040;2022-12-07T15:28:05;14.57;;;4.70;;
50379;SDS011;37474;59.468;18.040;2022-12-07T15:30:32;9.30;;;6.17;;
50379;SDS011;37474;59.468;18.040;2022-12-07T15:33:00;9.63;;;3.20;;
50379;SDS011;37474;59.468;18.040;2022-12-07T15:35:28;10.63;;;4.37;;
50379;SDS011;37474;59.468;18.040;2022-12-07T15:37:56;9.27;;;3.07;;
50379;SDS011;37474;59.468;18.040;2022-12-07T15:40:24;18.23;;;8.53;;